Time;durP1;ratioP1;P1;durP2;ratioP2;P2;SDS_P1;SDS_P2;PMS_P1;PMS_P2;Temp;Humidity;BMP_temperature;BMP_pressure;BME280_temperature;BME280_humidity;BME280_pressure;Samples;Min_cycle;Max_cycle;Signal;HPM_P1;HPM_P2
2022/12/12 00:01:36;;;;;;;;;;;21.70;62.60;;;;;;1535130;76;611;-70
2022/12/12 00:03:38;;;;;;;;;;;21.70;62.50;;;;;;1538807;76;1033;-71
2022/12/12 00:05:40;;;;;;;;;;;21.70;62.60;;;;;;1539763;77;731;-71
2022/12/12 00:07:42;;;;;;;;;;;21.70;62.50;;;;;;1538552;76;1211;-71
2022/12/12 00:09:44;;;;;;;;;;;21.70;62.60;;;;;;1541235;76;715;-71
2022/12/12 00:11:46;;;;;;;;;;;21.70;62.50;;;;;;1539002;76;790;-71
2022/12/12 00:13:47;;;;;;;;;;;21.70;62.60;;;;;;1539165;76;1944;-71
2022/12/12 00:15:49;;;;;;;;;;;21.70;62.60;;;;;;1539184;76;737;-71
2022/12/12 00:17:51;;;;;;;;;;;21.70;62.60;;;;;;1538505;76;1154;-72
2022/12/12 00:19:53;;;;;;;;;;;21.70;62.60;;;;;;1536270;76;707;-71
2022/12/12 00:21:55;;;;;;;;;;;21.70;62.50;;;;;;1538321;76;654;-72
2022/12/12 00:23:57;;;;;;;;;;;21.70;62.50;;;;;;1538645;76;753;-72
2022/12/12 00:26:00;;;;;;;;;;;21.70;62.50;;;;;;1536975;76;721;-72
2022/12/12 00:28:01;;;;;;;;;;;21.70;62.40;;;;;;1539060;76;1084;-72
2022/12/12 00:30:04;;;;;;;;;;;21.70;62.40;;;;;;1541595;76;1494;-72
2022/12/12 00:32:06;;;;;;;;;;;21.70;62.40;;;;;;1527605;77;714;-72
2022/12/12 00:34:07;;;;;;;;;;;21.70;62.40;;;;;;1549105;76;1936;-72
2022/12/12 00:36:09;;;;;;;;;;;21.70;62.40;;;;;;1527146;76;811;-71
2022/12/12 00:38:11;;;;;;;;;;;21.70;62.40;;;;;;1536780;77;1072;-70
2022/12/12 00:40:13;;;;;;;;;;;21.70;62.30;;;;;;1540257;76;705;-71
2022/12/12 00:42:15;;;;;;;;;;;21.70;62.40;;;;;;1537548;76;769;-69
2022/12/12 00:44:17;;;;;;;;;;;21.70;62.30;;;;;;1547953;76;720;-69
2022/12/12 00:46:23;;;;;;;;;;;21.70;62.20;;;;;;1539424;76;1150;-70
2022/12/12 00:48:24;;;;;;;;;;;21.70;62.10;;;;;;1544465;76;795;-70
2022/12/12 00:50:26;;;;;;;;;;;21.80;62.10;;;;;;1540822;76;694;-71
2022/12/12 00:52:28;;;;;;;;;;;21.80;62.10;;;;;;1535805;76;722;-71
2022/12/12 00:54:30;;;;;;;;;;;21.80;62.10;;;;;;1542957;76;1939;-71
2022/12/12 00:56:32;;;;;;;;;;;21.80;62.10;;;;;;1539138;76;1171;-71
2022/12/12 00:58:34;;;;;;;;;;;21.80;62.10;;;;;;1540202;76;725;-72
2022/12/12 01:00:39;;;;;;;;;;;21.80;62.10;;;;;;1539153;76;760;-73
2022/12/12 01:02:39;;;;;;;;;;;21.80;62.10;;;;;;1537769;76;1089;-71
2022/12/12 01:04:41;;;;;;;;;;;21.70;62.00;;;;;;1539736;76;796;-71
2022/12/12 01:06:43;;;;;;;;;;;21.70;62.10;;;;;;1549126;76;1195;-71
2022/12/12 01:08:45;;;;;;;;;;;21.80;62.00;;;;;;1536793;76;741;-71
2022/12/12 01:10:47;;;;;;;;;;;21.80;62.00;;;;;;1538540;76;610;-73
2022/12/12 01:12:49;;;;;;;;;;;21.70;62.00;;;;;;1541016;76;738;-74
2022/12/12 01:14:50;;;;;;;;;;;21.80;62.00;;;;;;1529335;76;1934;-72
2022/12/12 01:16:52;;;;;;;;;;;21.70;62.00;;;;;;1545609;76;1175;-72
2022/12/12 01:18:54;;;;;;;;;;;21.80;62.00;;;;;;1530454;76;715;-71
2022/12/12 01:20:56;;;;;;;;;;;21.80;62.00;;;;;;1532650;76;734;-72
2022/12/12 01:22:58;;;;;;;;;;;21.70;61.90;;;;;;1538080;76;732;-73
2022/12/12 01:25:00;;;;;;;;;;;21.80;62.00;;;;;;1534604;76;734;-72
2022/12/12 01:27:02;;;;;;;;;;;21.70;61.90;;;;;;1530665;76;1532;-73
2022/12/12 01:29:04;;;;;;;;;;;21.70;62.00;;;;;;1538292;76;763;-72
2022/12/12 01:31:06;;;;;;;;;;;21.80;61.90;;;;;;1539582;76;801;-73
2022/12/12 01:33:08;;;;;;;;;;;21.80;61.90;;;;;;1540634;76;1928;-72
2022/12/12 01:35:10;;;;;;;;;;;21.70;61.90;;;;;;1548722;76;793;-72
2022/12/12 01:37:11;;;;;;;;;;;21.80;61.90;;;;;;1539600;76;1150;-72
2022/12/12 01:39:13;;;;;;;;;;;21.80;61.90;;;;;;1529271;76;667;-71
2022/12/12 01:41:15;;;;;;;;;;;21.80;61.90;;;;;;1539420;76;679;-71
2022/12/12 01:43:17;;;;;;;;;;;21.80;61.90;;;;;;1538031;76;782;-71
2022/12/12 01:45:37;;;;;;;;;;;21.80;62.00;;;;;;1539428;77;717;-71
2022/12/12 01:47:39;;;;;;;;;;;21.70;61.90;;;;;;1538467;76;1068;-69
2022/12/12 01:49:42;;;;;;;;;;;21.80;61.90;;;;;;1535599;76;706;-71
2022/12/12 01:51:44;;;;;;;;;;;21.80;62.00;;;;;;1535481;76;706;-73
2022/12/12 01:53:46;;;;;;;;;;;21.80;61.90;;;;;;1539560;76;1931;-71
2022/12/12 01:55:48;;;;;;;;;;;21.80;61.90;;;;;;1535894;76;725;-70
2022/12/12 01:57:50;;;;;;;;;;;21.80;61.90;;;;;;1524988;76;1124;-69
2022/12/12 01:59:53;;;;;;;;;;;21.80;61.80;;;;;;1535999;76;802;-71
2022/12/12 02:01:55;;;;;;;;;;;21.70;61.90;;;;;;1539239;76;772;-66
2022/12/12 02:03:57;;;;;;;;;;;21.70;62.00;;;;;;1534454;77;786;-71
2022/12/12 02:05:59;;;;;;;;;;;21.80;61.90;;;;;;1534139;76;733;-71
2022/12/12 02:08:01;;;;;;;;;;;21.80;62.00;;;;;;1537621;76;1156;-72
2022/12/12 02:10:03;;;;;;;;;;;21.80;62.00;;;;;;1533935;76;816;-70
2022/12/12 02:12:05;;;;;;;;;;;21.80;62.00;;;;;;1545222;76;678;-70
2022/12/12 02:14:07;;;;;;;;;;;21.80;62.00;;;;;;1527012;76;1937;-69
2022/12/12 02:16:14;;;;;;;;;;;21.70;62.00;;;;;;1535784;76;733;-74
2022/12/12 02:18:17;;;;;;;;;;;21.80;62.10;;;;;;1539961;76;1451;-70
2022/12/12 02:20:30;;;;;;;;;;;21.80;62.00;;;;;;1535640;76;777;-71
2022/12/12 02:22:39;;;;;;;;;;;21.70;62.00;;;;;;1538515;76;1438;-70
2022/12/12 02:24:49;;;;;;;;;;;21.70;62.00;;;;;;1538716;76;1967;-71
2022/12/12 02:27:05;;;;;;;;;;;21.70;62.00;;;;;;1539909;76;1151;-70
2022/12/12 02:29:11;;;;;;;;;;;21.70;62.00;;;;;;1534647;76;1786;-70
2022/12/12 02:31:18;;;;;;;;;;;21.70;62.00;;;;;;1539020;77;1452;-69
2022/12/12 02:33:21;;;;;;;;;;;21.70;62.00;;;;;;1538849;76;1186;-71
2022/12/12 02:35:36;;;;;;;;;;;21.70;62.00;;;;;;1538869;76;1937;-71
2022/12/12 02:37:43;;;;;;;;;;;21.70;62.00;;;;;;1537395;76;1091;-71
2022/12/12 02:39:49;;;;;;;;;;;21.70;62.00;;;;;;1538678;76;1093;-70
2022/12/12 02:41:53;;;;;;;;;;;21.70;62.10;;;;;;1534420;76;1739;-68
2022/12/12 02:43:56;;;;;;;;;;;21.70;62.10;;;;;;1538540;76;625;-69
2022/12/12 02:45:59;;;;;;;;;;;21.70;62.10;;;;;;1540649;77;661;-70
2022/12/12 02:48:12;;;;;;;;;;;21.70;62.10;;;;;;1541343;76;1080;-69
2022/12/12 02:50:16;;;;;;;;;;;21.70;62.10;;;;;;1534166;76;719;-69
2022/12/12 02:52:17;;;;;;;;;;;21.70;62.10;;;;;;1539483;76;699;-70
2022/12/12 02:54:20;;;;;;;;;;;21.60;62.00;;;;;;1536031;76;1940;-70
2022/12/12 02:56:40;;;;;;;;;;;21.60;62.10;;;;;;1532915;76;1160;-71
2022/12/12 02:58:42;;;;;;;;;;;21.70;62.10;;;;;;1562595;72;2138;-83
2022/12/12 03:00:48;;;;;;;;;;;21.70;62.10;;;;;;1560617;76;715;-82
2022/12/12 03:07:45;;;;;;;;;;;21.70;62.00;;;;;;1561452;75;1119;-81
2022/12/12 03:07:48;;;;;;;;;;;21.60;62.00;;;;;;1561774;75;1665;-82
2022/12/12 03:09:54;;;;;;;;;;;21.60;62.00;;;;;;1541966;76;632;-84
2022/12/12 03:12:07;;;;;;;;;;;21.60;62.00;;;;;;1521107;76;750;-83
2022/12/12 03:14:10;;;;;;;;;;;21.70;62.10;;;;;;1540529;76;1913;-84
2022/12/12 03:16:34;;;;;;;;;;;21.60;62.00;;;;;;1540655;76;2201;-82
2022/12/12 03:18:43;;;;;;;;;;;21.60;61.90;;;;;;1527051;75;1592;-80
2022/12/12 03:20:47;;;;;;;;;;;21.70;62.00;;;;;;1527436;76;696;-79
2022/12/12 03:22:53;;;;;;;;;;;21.70;62.00;;;;;;1530331;76;1577;-79
2022/12/12 03:24:57;;;;;;;;;;;21.70;62.00;;;;;;1538826;75;810;-77
2022/12/12 03:27:02;;;;;;;;;;;21.70;62.00;;;;;;1530757;76;1854;-77
2022/12/12 03:29:11;;;;;;;;;;;21.70;62.00;;;;;;1531151;76;1175;-80
2022/12/12 03:31:13;;;;;;;;;;;21.70;61.90;;;;;;1534611;76;1736;-78
2022/12/12 03:33:26;;;;;;;;;;;21.70;61.90;;;;;;1534189;76;669;-80
2022/12/12 03:35:32;;;;;;;;;;;21.60;61.80;;;;;;1490627;78;1919;-80
2022/12/12 03:37:36;;;;;;;;;;;21.70;61.90;;;;;;1474613;78;1175;-80
2022/12/12 03:39:38;;;;;;;;;;;21.70;61.90;;;;;;1492680;79;839;-81
2022/12/12 03:41:45;;;;;;;;;;;21.70;61.90;;;;;;1493522;79;729;-81
2022/12/12 03:43:48;;;;;;;;;;;21.60;61.80;;;;;;1494677;79;1714;-80
2022/12/12 03:46:08;;;;;;;;;;;21.60;61.80;;;;;;1492438;79;1732;-81
2022/12/12 03:48:12;;;;;;;;;;;21.70;61.80;;;;;;1482145;79;1121;-81
2022/12/12 03:50:15;;;;;;;;;;;21.60;61.80;;;;;;1489776;77;757;-81
2022/12/12 03:52:22;;;;;;;;;;;21.70;61.80;;;;;;1488741;79;718;-79
2022/12/12 03:54:25;;;;;;;;;;;21.60;61.80;;;;;;1483684;79;1946;-80
2022/12/12 03:56:34;;;;;;;;;;;21.70;61.80;;;;;;1491987;79;738;-81
2022/12/12 03:58:47;;;;;;;;;;;21.70;61.80;;;;;;1493892;77;1150;-79
2022/12/12 04:00:49;;;;;;;;;;;21.70;61.80;;;;;;1486276;79;715;-78
2022/12/12 04:02:52;;;;;;;;;;;21.70;61.80;;;;;;1491026;79;763;-78
2022/12/12 04:04:56;;;;;;;;;;;21.70;61.70;;;;;;1491113;79;784;-81
2022/12/12 04:06:59;;;;;;;;;;;21.70;61.70;;;;;;1484200;79;758;-80
2022/12/12 04:13:52;;;;;;;;;;;21.70;61.70;;;;;;1485263;79;508;-81
2022/12/12 04:16:08;;;;;;;;;;;21.70;61.60;;;;;;1472609;79;2011;-79
2022/12/12 04:18:23;;;;;;;;;;;21.70;61.70;;;;;;1457679;79;1235;-82
2022/12/12 04:25:15;;;;;;;;;;;21.70;61.60;;;;;;1487246;79;1687;-81
2022/12/12 04:27:25;;;;;;;;;;;21.70;61.70;;;;;;1484649;77;1810;-81
2022/12/12 04:29:38;;;;;;;;;;;21.70;61.70;;;;;;1482147;79;1821;-81
2022/12/12 04:31:41;;;;;;;;;;;21.80;61.60;;;;;;1480435;79;741;-82
2022/12/12 04:33:43;;;;;;;;;;;21.80;61.60;;;;;;1482986;79;670;-82
2022/12/12 04:35:45;;;;;;;;;;;21.70;61.70;;;;;;1494351;79;1930;-83
2022/12/12 04:37:57;;;;;;;;;;;21.80;61.60;;;;;;1498080;79;1226;-82
2022/12/12 04:39:59;;;;;;;;;;;21.70;61.60;;;;;;1485113;79;740;-79
2022/12/12 04:42:01;;;;;;;;;;;21.80;61.60;;;;;;1486434;79;841;-82
2022/12/12 04:44:06;;;;;;;;;;;21.80;61.60;;;;;;1488028;79;773;-83
2022/12/12 04:46:08;;;;;;;;;;;21.70;61.50;;;;;;1484837;79;724;-82
2022/12/12 04:48:12;;;;;;;;;;;21.80;61.50;;;;;;1486585;79;1156;-81
2022/12/12 04:50:14;;;;;;;;;;;21.80;61.50;;;;;;1488417;79;704;-80
2022/12/12 04:52:16;;;;;;;;;;;21.70;61.50;;;;;;1482124;79;717;-77
2022/12/12 04:54:25;;;;;;;;;;;21.70;61.50;;;;;;1486976;79;1915;-81
2022/12/12 04:56:28;;;;;;;;;;;21.80;61.40;;;;;;1487749;79;1039;-82
2022/12/12 04:58:30;;;;;;;;;;;21.80;61.40;;;;;;1483220;79;1155;-82
2022/12/12 05:00:34;;;;;;;;;;;21.80;61.40;;;;;;1484599;79;864;-81
2022/12/12 05:02:46;;;;;;;;;;;21.80;61.30;;;;;;1486913;79;738;-81
2022/12/12 05:04:59;;;;;;;;;;;21.80;61.30;;;;;;1484759;79;736;-80
2022/12/12 05:07:02;;;;;;;;;;;21.80;61.40;;;;;;1486664;79;849;-83
2022/12/12 05:09:04;;;;;;;;;;;21.80;61.30;;;;;;1483221;79;1128;-83
2022/12/12 05:11:06;;;;;;;;;;;21.80;61.30;;;;;;1483479;79;1520;-82
2022/12/12 05:13:09;;;;;;;;;;;21.80;61.40;;;;;;1481784;79;743;-80
2022/12/12 05:15:12;;;;;;;;;;;21.70;61.30;;;;;;1485931;79;1938;-80
2022/12/12 05:17:15;;;;;;;;;;;21.80;61.30;;;;;;1485543;79;752;-79
2022/12/12 05:19:17;;;;;;;;;;;21.80;61.30;;;;;;1486994;79;767;-80
2022/12/12 05:21:19;;;;;;;;;;;21.80;61.20;;;;;;1486791;79;769;-83
2022/12/12 05:23:21;;;;;;;;;;;21.80;61.20;;;;;;1485031;79;821;-83
2022/12/12 05:25:23;;;;;;;;;;;21.80;61.20;;;;;;1486320;79;738;-81
2022/12/12 05:27:25;;;;;;;;;;;21.80;61.20;;;;;;1486758;79;1191;-82
2022/12/12 05:29:27;;;;;;;;;;;21.80;61.10;;;;;;1482313;79;795;-82
2022/12/12 05:31:29;;;;;;;;;;;21.80;61.20;;;;;;1490853;79;723;-82
2022/12/12 05:33:31;;;;;;;;;;;21.80;61.30;;;;;;1489337;79;687;-85
2022/12/12 05:35:33;;;;;;;;;;;21.90;61.40;;;;;;1492559;79;1911;-81
2022/12/12 05:37:35;;;;;;;;;;;21.80;61.30;;;;;;1498299;79;1128;-83
2022/12/12 05:39:37;;;;;;;;;;;21.80;61.30;;;;;;1498981;79;740;-78
2022/12/12 05:41:39;;;;;;;;;;;21.80;61.30;;;;;;1493001;79;727;-81
2022/12/12 05:43:41;;;;;;;;;;;21.80;61.30;;;;;;1487216;79;602;-80
2022/12/12 05:45:42;;;;;;;;;;;21.80;61.30;;;;;;1494714;79;708;-82
2022/12/12 05:47:44;;;;;;;;;;;21.80;61.30;;;;;;1499880;77;1138;-78
2022/12/12 05:49:46;;;;;;;;;;;21.80;61.30;;;;;;1484101;79;709;-75
2022/12/12 05:51:48;;;;;;;;;;;21.80;61.40;;;;;;1483831;79;732;-77
2022/12/12 05:53:50;;;;;;;;;;;21.90;61.20;;;;;;1495808;79;754;-77
2022/12/12 05:55:52;;;;;;;;;;;21.90;61.30;;;;;;1487678;79;1940;-76
2022/12/12 05:57:54;;;;;;;;;;;21.90;61.30;;;;;;1496354;77;1130;-77
2022/12/12 05:59:56;;;;;;;;;;;21.90;61.20;;;;;;1483602;79;814;-78
2022/12/12 06:01:57;;;;;;;;;;;21.90;61.30;;;;;;1488255;78;791;-78
2022/12/12 06:03:59;;;;;;;;;;;21.90;61.20;;;;;;1493795;79;711;-80
2022/12/12 06:06:01;;;;;;;;;;;21.80;61.20;;;;;;1487305;79;820;-73
2022/12/12 06:08:03;;;;;;;;;;;21.80;61.50;;;;;;1483819;79;1326;-77
2022/12/12 06:10:05;;;;;;;;;;;21.80;61.40;;;;;;1490334;78;721;-77
2022/12/12 06:12:07;;;;;;;;;;;21.80;61.40;;;;;;1484739;79;764;-76
2022/12/12 06:14:09;;;;;;;;;;;21.80;61.40;;;;;;1483523;79;649;-76
2022/12/12 06:16:13;;;;;;;;;;;21.70;61.40;;;;;;1487122;79;1931;-77
2022/12/12 06:18:15;;;;;;;;;;;21.70;61.40;;;;;;1488242;79;1126;-76
2022/12/12 06:20:17;;;;;;;;;;;21.80;61.30;;;;;;1490702;79;707;-76
2022/12/12 06:22:19;;;;;;;;;;;21.70;61.50;;;;;;1485218;79;704;-77
2022/12/12 06:24:21;;;;;;;;;;;21.70;61.40;;;;;;1483189;78;723;-75
2022/12/12 06:26:23;;;;;;;;;;;21.80;61.10;;;;;;1482819;79;775;-76
2022/12/12 06:28:25;;;;;;;;;;;21.70;60.90;;;;;;1483423;78;1189;-77
2022/12/12 06:30:27;;;;;;;;;;;21.80;60.80;;;;;;1489088;79;910;-73
2022/12/12 06:32:29;;;;;;;;;;;21.70;60.80;;;;;;1485604;79;740;-72
2022/12/12 06:34:30;;;;;;;;;;;21.70;60.90;;;;;;1489329;79;749;-75
2022/12/12 06:36:32;;;;;;;;;;;21.70;60.80;;;;;;1482328;78;1942;-79
2022/12/12 06:38:34;;;;;;;;;;;21.70;60.90;;;;;;1488658;79;1161;-74
2022/12/12 06:40:38;;;;;;;;;;;21.70;60.90;;;;;;1486420;78;790;-74
2022/12/12 06:42:40;;;;;;;;;;;21.70;61.00;;;;;;1485795;79;760;-75
2022/12/12 06:44:42;;;;;;;;;;;21.80;61.00;;;;;;1490817;79;720;-78
2022/12/12 06:46:44;;;;;;;;;;;21.80;61.10;;;;;;1488908;79;731;-76
2022/12/12 06:48:46;;;;;;;;;;;21.80;60.90;;;;;;1487001;79;1150;-77
2022/12/12 06:50:48;;;;;;;;;;;21.80;60.80;;;;;;1485350;78;659;-77
2022/12/12 06:52:50;;;;;;;;;;;21.80;60.80;;;;;;1485620;78;683;-80
2022/12/12 06:54:52;;;;;;;;;;;21.70;60.70;;;;;;1486080;78;1939;-78
2022/12/12 06:56:53;;;;;;;;;;;21.70;60.70;;;;;;1487871;78;758;-75
2022/12/12 06:58:55;;;;;;;;;;;21.70;60.60;;;;;;1479522;79;1100;-79
2022/12/12 07:00:57;;;;;;;;;;;21.60;60.60;;;;;;1484245;79;823;-79
2022/12/12 07:02:59;;;;;;;;;;;21.70;60.60;;;;;;1483894;79;712;-76
2022/12/12 07:05:01;;;;;;;;;;;21.60;60.60;;;;;;1480062;78;1304;-78
2022/12/12 07:07:03;;;;;;;;;;;21.60;60.60;;;;;;1486438;79;703;-80
2022/12/12 07:09:05;;;;;;;;;;;21.60;60.60;;;;;;1496481;79;1196;-77
2022/12/12 07:11:08;;;;;;;;;;;21.60;60.60;;;;;;1490066;79;799;-78
2022/12/12 07:13:10;;;;;;;;;;;21.60;60.60;;;;;;1490487;79;892;-76
2022/12/12 07:15:12;;;;;;;;;;;21.50;60.50;;;;;;1488841;79;1945;-78
2022/12/12 07:17:14;;;;;;;;;;;21.50;60.50;;;;;;1490214;79;804;-78
2022/12/12 07:19:16;;;;;;;;;;;21.50;60.60;;;;;;1485282;79;1126;-76
2022/12/12 07:21:18;;;;;;;;;;;21.50;60.60;;;;;;1480377;79;724;-76
2022/12/12 07:23:20;;;;;;;;;;;21.50;60.50;;;;;;1487352;79;772;-77
2022/12/12 07:25:22;;;;;;;;;;;21.40;60.30;;;;;;1493311;79;724;-78
2022/12/12 07:27:24;;;;;;;;;;;21.50;60.40;;;;;;1485749;78;1128;-79
2022/12/12 07:29:26;;;;;;;;;;;21.50;60.40;;;;;;1486060;79;786;-78
2022/12/12 07:31:27;;;;;;;;;;;21.40;60.30;;;;;;1490795;79;797;-77
2022/12/12 07:33:29;;;;;;;;;;;21.50;60.30;;;;;;1487547;78;630;-76
2022/12/12 07:35:31;;;;;;;;;;;21.40;60.20;;;;;;1482359;78;1954;-78
2022/12/12 07:37:33;;;;;;;;;;;21.40;60.20;;;;;;1483091;78;1141;-75
2022/12/12 07:39:36;;;;;;;;;;;21.40;60.20;;;;;;1481493;79;739;-80
2022/12/12 07:41:37;;;;;;;;;;;21.40;60.20;;;;;;1483161;79;826;-79
2022/12/12 07:43:40;;;;;;;;;;;21.50;60.30;;;;;;1482520;79;731;-80
2022/12/12 07:45:45;;;;;;;;;;;21.40;60.20;;;;;;1485016;79;727;-77
2022/12/12 07:47:46;;;;;;;;;;;21.40;60.00;;;;;;1486436;79;1136;-79
2022/12/12 07:49:48;;;;;;;;;;;21.40;60.00;;;;;;1487614;79;742;-79
2022/12/12 07:51:50;;;;;;;;;;;21.40;60.10;;;;;;1484704;78;763;-76
2022/12/12 07:53:52;;;;;;;;;;;21.40;60.00;;;;;;1488440;79;741;-79
2022/12/12 07:55:55;;;;;;;;;;;21.40;60.00;;;;;;1484610;79;1954;-79
2022/12/12 07:57:57;;;;;;;;;;;21.40;59.80;;;;;;1496051;77;1158;-78
2022/12/12 07:59:59;;;;;;;;;;;21.40;59.80;;;;;;1484372;78;1579;-78
2022/12/12 08:02:01;;;;;;;;;;;21.50;59.90;;;;;;1483783;79;828;-79
2022/12/12 08:04:02;;;;;;;;;;;21.50;59.80;;;;;;1482653;79;804;-73
2022/12/12 08:06:05;;;;;;;;;;;21.50;59.90;;;;;;1491293;79;734;-75
2022/12/12 08:08:07;;;;;;;;;;;21.60;59.90;;;;;;1492522;79;1226;-78
2022/12/12 08:10:09;;;;;;;;;;;21.60;60.00;;;;;;1483932;77;759;-78
2022/12/12 08:12:11;;;;;;;;;;;21.60;59.80;;;;;;1485891;79;806;-78
2022/12/12 08:14:13;;;;;;;;;;;21.50;59.80;;;;;;1489283;79;737;-78
2022/12/12 08:16:16;;;;;;;;;;;21.60;59.80;;;;;;1483916;78;1942;-80
2022/12/12 08:18:18;;;;;;;;;;;21.60;59.70;;;;;;1482860;79;1151;-79
2022/12/12 08:20:21;;;;;;;;;;;21.50;59.70;;;;;;1487445;79;730;-79
2022/12/12 08:22:23;;;;;;;;;;;21.60;59.70;;;;;;1487326;79;847;-80
2022/12/12 08:24:27;;;;;;;;;;;21.50;59.70;;;;;;1484315;79;755;-76
2022/12/12 08:26:29;;;;;;;;;;;21.50;59.70;;;;;;1486822;79;696;-79
2022/12/12 08:28:30;;;;;;;;;;;21.50;59.60;;;;;;1484143;78;1136;-79
2022/12/12 08:30:32;;;;;;;;;;;21.50;59.60;;;;;;1493080;78;740;-78
2022/12/12 08:32:35;;;;;;;;;;;21.50;59.60;;;;;;1487853;78;698;-77
2022/12/12 08:34:37;;;;;;;;;;;21.50;59.60;;;;;;1486118;79;725;-77
2022/12/12 08:36:38;;;;;;;;;;;21.50;59.60;;;;;;1482881;78;1947;-77
2022/12/12 08:38:40;;;;;;;;;;;21.50;59.50;;;;;;1486420;79;1145;-77
2022/12/12 08:40:42;;;;;;;;;;;21.50;59.60;;;;;;1482509;79;779;-77
2022/12/12 08:42:44;;;;;;;;;;;21.50;59.50;;;;;;1488444;79;803;-76
2022/12/12 08:44:46;;;;;;;;;;;21.50;59.50;;;;;;1479517;78;811;-76
2022/12/12 08:46:48;;;;;;;;;;;21.50;59.40;;;;;;1457324;79;1279;-77
2022/12/12 08:48:50;;;;;;;;;;;21.50;59.50;;;;;;1482705;79;1214;-76
2022/12/12 08:50:52;;;;;;;;;;;21.50;59.50;;;;;;1485657;78;682;-75
2022/12/12 08:52:54;;;;;;;;;;;21.40;59.30;;;;;;1482336;78;751;-77
2022/12/12 08:54:56;;;;;;;;;;;21.40;59.40;;;;;;1487210;79;738;-82
2022/12/12 08:56:58;;;;;;;;;;;21.40;59.30;;;;;;1482301;79;1944;-77
2022/12/12 08:59:00;;;;;;;;;;;21.50;59.30;;;;;;1541071;71;2071;-76
2022/12/12 09:01:02;;;;;;;;;;;21.40;59.30;;;;;;1565046;74;761;-73
2022/12/12 09:03:04;;;;;;;;;;;21.40;59.30;;;;;;1562553;76;723;-76
2022/12/12 09:05:06;;;;;;;;;;;21.50;59.20;;;;;;1553317;74;724;-75
2022/12/12 09:07:08;;;;;;;;;;;21.40;59.10;;;;;;1554440;74;727;-74
2022/12/12 09:09:10;;;;;;;;;;;21.40;59.20;;;;;;1565897;74;1257;-74
2022/12/12 09:11:12;;;;;;;;;;;21.40;59.60;;;;;;1566478;74;750;-73
2022/12/12 09:13:14;;;;;;;;;;;21.50;59.80;;;;;;1565055;74;680;-73
2022/12/12 09:15:16;;;;;;;;;;;21.50;60.00;;;;;;1564636;74;771;-74
2022/12/12 09:17:18;;;;;;;;;;;21.50;60.20;;;;;;1561627;74;1940;-72
2022/12/12 09:19:20;;;;;;;;;;;21.60;60.20;;;;;;1562762;74;1152;-74
2022/12/12 09:21:21;;;;;;;;;;;21.60;60.30;;;;;;1560890;76;717;-74
2022/12/12 09:23:23;;;;;;;;;;;21.60;60.40;;;;;;1557430;76;775;-74
2022/12/12 09:25:25;;;;;;;;;;;21.70;60.50;;;;;;1560390;74;723;-75
2022/12/12 09:27:27;;;;;;;;;;;21.70;60.40;;;;;;1562210;74;746;-74
2022/12/12 09:29:29;;;;;;;;;;;21.70;60.30;;;;;;1562660;74;1105;-75
2022/12/12 09:31:31;;;;;;;;;;;21.80;60.30;;;;;;1566882;74;657;-74
2022/12/12 09:33:33;;;;;;;;;;;21.80;60.20;;;;;;1561676;76;768;-74
2022/12/12 09:35:35;;;;;;;;;;;21.80;60.10;;;;;;1561053;74;716;-76
2022/12/12 09:37:37;;;;;;;;;;;21.90;60.00;;;;;;1562383;74;1928;-73
2022/12/12 09:39:39;;;;;;;;;;;21.90;59.90;;;;;;1564487;76;773;-74
2022/12/12 09:41:41;;;;;;;;;;;21.90;59.70;;;;;;1567017;74;709;-75
2022/12/12 09:43:47;;;;;;;;;;;21.90;59.60;;;;;;1566855;74;744;-75
2022/12/12 09:45:49;;;;;;;;;;;22.00;59.40;;;;;;1564372;74;707;-78
2022/12/12 09:47:53;;;;;;;;;;;22.00;59.40;;;;;;1565496;74;1127;-74
2022/12/12 09:49:55;;;;;;;;;;;22.00;59.40;;;;;;1561470;74;701;-74
2022/12/12 09:51:57;;;;;;;;;;;22.00;59.30;;;;;;1558932;76;736;-75
2022/12/12 09:53:59;;;;;;;;;;;22.10;59.30;;;;;;1564506;74;1713;-73
2022/12/12 09:56:20;;;;;;;;;;;22.00;59.00;;;;;;1559200;74;1920;-74
2022/12/12 09:58:26;;;;;;;;;;;22.00;59.00;;;;;;1560263;74;1495;-73
2022/12/12 10:00:28;;;;;;;;;;;22.10;58.90;;;;;;1565686;76;732;-73
2022/12/12 10:02:32;;;;;;;;;;;22.10;58.80;;;;;;1559199;74;731;-73
2022/12/12 10:04:40;;;;;;;;;;;22.10;58.40;;;;;;1565959;76;2005;-74
2022/12/12 10:07:02;;;;;;;;;;;22.20;58.20;;;;;;1563682;76;755;-72
2022/12/12 10:09:11;;;;;;;;;;;22.20;58.10;;;;;;1566368;74;1130;-74
2022/12/12 10:13:34;;;;;;;;;;;22.30;58.10;;;;;;1562958;74;1636;-73
2022/12/12 10:15:39;;;;;;;;;;;22.20;57.80;;;;;;1566604;74;764;-76
2022/12/12 10:17:42;;;;;;;;;;;22.20;57.80;;;;;;1553782;74;1907;-73
2022/12/12 10:19:51;;;;;;;;;;;22.20;57.60;;;;;;1563611;74;711;-71
2022/12/12 10:21:53;;;;;;;;;;;22.20;57.60;;;;;;1559935;76;631;-73
2022/12/12 10:23:59;;;;;;;;;;;22.20;57.60;;;;;;1565624;75;802;-74
2022/12/12 10:26:01;;;;;;;;;;;22.20;57.50;;;;;;1565651;74;1863;-72
2022/12/12 10:28:10;;;;;;;;;;;22.20;57.40;;;;;;1567648;74;1136;-74
2022/12/12 10:30:16;;;;;;;;;;;22.20;57.30;;;;;;1556196;76;714;-74
2022/12/12 10:32:26;;;;;;;;;;;22.20;57.40;;;;;;1563231;76;720;-75
2022/12/12 10:34:32;;;;;;;;;;;22.20;57.30;;;;;;1563293;74;799;-72
2022/12/12 10:36:36;;;;;;;;;;;22.20;57.30;;;;;;1566688;74;1928;-74
2022/12/12 10:38:56;;;;;;;;;;;22.20;57.30;;;;;;1561325;74;1176;-74
2022/12/12 10:40:59;;;;;;;;;;;22.30;57.30;;;;;;1554706;76;753;-75
2022/12/12 10:43:08;;;;;;;;;;;22.20;57.20;;;;;;1556249;76;775;-74
2022/12/12 10:45:27;;;;;;;;;;;22.20;57.20;;;;;;1555252;75;1193;-75
2022/12/12 10:47:29;;;;;;;;;;;22.20;57.20;;;;;;1562317;74;799;-76
2022/12/12 10:49:30;;;;;;;;;;;22.20;57.20;;;;;;1552542;76;1585;-77
2022/12/12 10:51:32;;;;;;;;;;;22.30;57.30;;;;;;1563535;74;845;-77
2022/12/12 10:53:34;;;;;;;;;;;22.30;57.30;;;;;;1564924;76;738;-74
2022/12/12 10:55:47;;;;;;;;;;;22.30;57.40;;;;;;1565334;74;738;-76
2022/12/12 10:57:51;;;;;;;;;;;22.20;57.30;;;;;;1561093;74;1911;-76
2022/12/12 10:59:56;;;;;;;;;;;22.20;57.40;;;;;;1557863;74;1199;-75
2022/12/12 11:01:58;;;;;;;;;;;22.20;57.40;;;;;;1557868;74;680;-75
2022/12/12 11:04:00;;;;;;;;;;;22.20;57.30;;;;;;1563194;76;673;-77
2022/12/12 11:06:06;;;;;;;;;;;22.20;57.30;;;;;;1558533;74;561;-76
2022/12/12 11:08:21;;;;;;;;;;;22.30;57.40;;;;;;1555693;74;1304;-76
2022/12/12 11:10:25;;;;;;;;;;;22.20;57.30;;;;;;1557364;76;729;-76
2022/12/12 11:12:33;;;;;;;;;;;22.20;57.30;;;;;;1559517;76;699;-77
2022/12/12 11:14:36;;;;;;;;;;;22.30;57.40;;;;;;1563768;76;680;-75
2022/12/12 11:16:41;;;;;;;;;;;22.20;57.20;;;;;;1563492;74;1937;-76
2022/12/12 11:18:45;;;;;;;;;;;22.20;57.30;;;;;;1566400;74;1164;-75
2022/12/12 11:20:48;;;;;;;;;;;22.30;57.40;;;;;;1544932;74;1392;-75
2022/12/12 11:22:50;;;;;;;;;;;22.30;57.30;;;;;;1561200;74;608;-75
2022/12/12 11:24:52;;;;;;;;;;;22.20;57.30;;;;;;1553402;74;632;-71
2022/12/12 11:26:57;;;;;;;;;;;22.30;57.50;;;;;;1559987;74;721;-71
2022/12/12 11:29:00;;;;;;;;;;;22.20;57.30;;;;;;1560608;74;1198;-71
2022/12/12 11:31:03;;;;;;;;;;;22.20;57.30;;;;;;1559162;76;735;-73
2022/12/12 11:33:05;;;;;;;;;;;22.20;57.30;;;;;;1556574;76;799;-73
2022/12/12 11:35:07;;;;;;;;;;;22.20;57.30;;;;;;1528635;76;577;-71
2022/12/12 11:37:11;;;;;;;;;;;22.20;57.30;;;;;;1559517;74;1912;-73
2022/12/12 11:39:18;;;;;;;;;;;22.20;57.20;;;;;;1564663;74;1894;-73
2022/12/12 11:41:21;;;;;;;;;;;22.20;57.30;;;;;;1558637;76;1824;-73
2022/12/12 11:43:24;;;;;;;;;;;22.30;57.30;;;;;;1557228;74;790;-73
2022/12/12 11:45:25;;;;;;;;;;;22.20;57.20;;;;;;1556284;74;1532;-72
2022/12/12 11:47:28;;;;;;;;;;;22.20;57.20;;;;;;1551356;76;585;-74
2022/12/12 11:49:30;;;;;;;;;;;22.20;57.20;;;;;;1558932;74;1010;-73
2022/12/12 11:51:33;;;;;;;;;;;22.20;57.20;;;;;;1563836;74;728;-75
2022/12/12 11:53:40;;;;;;;;;;;22.20;57.30;;;;;;1558366;74;651;-70
2022/12/12 11:55:49;;;;;;;;;;;22.20;57.30;;;;;;1558099;76;1203;-74
2022/12/12 11:57:59;;;;;;;;;;;22.20;57.30;;;;;;1566795;74;1932;-74
2022/12/12 12:00:11;;;;;;;;;;;22.10;57.40;;;;;;1560125;74;1810;-74
2022/12/12 12:02:31;;;;;;;;;;;22.10;57.40;;;;;;1560076;76;727;-74
2022/12/12 12:04:35;;;;;;;;;;;22.10;57.40;;;;;;1560257;74;748;-73
2022/12/12 12:06:41;;;;;;;;;;;22.10;57.50;;;;;;1568151;74;1127;-74
2022/12/12 12:09:03;;;;;;;;;;;22.20;57.50;;;;;;1564930;74;1199;-75
2022/12/12 12:11:15;;;;;;;;;;;22.20;57.40;;;;;;1554974;74;708;-73
2022/12/12 12:13:19;;;;;;;;;;;22.20;57.50;;;;;;1555968;74;958;-71
2022/12/12 12:15:22;;;;;;;;;;;22.20;57.50;;;;;;1551924;74;691;-73
2022/12/12 12:17:26;;;;;;;;;;;22.20;57.50;;;;;;1563958;74;2007;-73
2022/12/12 12:19:41;;;;;;;;;;;22.20;57.50;;;;;;1564907;74;1747;-72
2022/12/12 12:22:00;;;;;;;;;;;22.20;57.60;;;;;;1555866;76;1550;-72
2022/12/12 12:24:09;;;;;;;;;;;22.20;57.50;;;;;;1565836;76;741;-73
2022/12/12 12:26:19;;;;;;;;;;;22.10;57.60;;;;;;1559404;74;724;-73
2022/12/12 12:28:25;;;;;;;;;;;22.10;57.60;;;;;;1565207;74;1167;-73
2022/12/12 12:30:29;;;;;;;;;;;22.10;57.60;;;;;;1561233;74;799;-73
2022/12/12 12:32:42;;;;;;;;;;;22.10;57.70;;;;;;1558788;76;1737;-73
2022/12/12 12:35:01;;;;;;;;;;;22.10;57.70;;;;;;1572005;74;609;-73